createdAt,value
2023-10-06T00:06:08.031Z,14.89
2023-10-06T00:16:18.031Z,15.96
2023-10-06T00:26:27.925Z,16.27
2023-10-06T00:36:37.821Z,16.11
2023-10-06T00:46:47.951Z,16.87
2023-10-06T00:56:48.180Z,18.45
2023-10-06T01:06:48.118Z,18.34
2023-10-06T01:16:58.231Z,18.21
2023-10-06T01:26:58.237Z,17.49
2023-10-06T01:36:58.151Z,17.68
2023-10-06T01:47:07.998Z,16.55
2023-10-06T01:57:17.781Z,15.9
2023-10-06T02:07:27.645Z,16.03
2023-10-06T02:17:37.623Z,16.8
2023-10-06T02:27:47.350Z,17.32
2023-10-06T02:37:57.601Z,18.24
2023-10-06T02:47:57.554Z,20.44
2023-10-06T02:58:07.428Z,22
2023-10-06T03:08:17.275Z,21.47
2023-10-06T03:18:27.312Z,22.69
2023-10-06T03:28:27.148Z,23.33
2023-10-06T03:38:37.026Z,22.21
2023-10-06T03:48:47.982Z,23.69
2023-10-06T03:58:47.877Z,24.24
2023-10-06T04:08:57.738Z,22.5
2023-10-06T04:19:10.657Z,21.86
2023-10-06T04:29:10.012Z,22.09
2023-10-06T04:39:19.831Z,23.3
2023-10-06T04:49:29.775Z,22.81
2023-10-06T04:59:42.635Z,22.71
2023-10-06T05:09:42.608Z,22.17
2023-10-06T05:19:52.773Z,22.52
2023-10-06T05:29:52.832Z,24.06
2023-10-06T05:39:53.095Z,24.02
2023-10-06T05:49:53.141Z,26.12
2023-10-06T05:59:53.018Z,25.87
2023-10-06T06:10:03.182Z,26.44
2023-10-06T06:20:08.409Z,28.28
2023-10-06T06:30:12.949Z,25.28
2023-10-06T06:40:13.655Z,24.94
2023-10-06T06:50:13.823Z,24.61
2023-10-06T07:00:24.457Z,24.89
2023-10-06T07:10:24.491Z,29.36
2023-10-06T07:20:24.820Z,25.56
2023-10-06T07:30:24.813Z,23.36
2023-10-06T07:40:37.720Z,23.13
2023-10-06T07:50:50.446Z,22.03
2023-10-06T08:00:41.785Z,20.92
2023-10-06T08:10:41.818Z,20.56
2023-10-06T08:20:42.737Z,20.58
2023-10-06T08:30:44.461Z,18.03
2023-10-06T08:40:45.880Z,17.31
2023-10-06T08:50:45.692Z,16.75
2023-10-06T09:31:02.208Z,15.28
2023-10-06T09:41:12.462Z,14.43
2023-10-06T09:51:15.577Z,12.8
2023-10-06T10:01:17.644Z,12.06
2023-10-06T10:11:17.322Z,13.41
2023-10-06T10:21:18.290Z,13.35
2023-10-06T10:31:18.543Z,15.21
2023-10-06T10:41:19.611Z,15.38
2023-10-06T10:51:19.930Z,16.22
2023-10-06T11:01:20.026Z,17.48
2023-10-06T11:11:21.164Z,16.72
2023-10-06T11:21:21.507Z,13.32
2023-10-06T11:31:21.634Z,10.99
2023-10-06T11:41:21.646Z,9.16
2023-10-06T11:51:31.660Z,8.95
2023-10-06T12:01:31.646Z,8.47
2023-10-06T12:11:31.631Z,9.18
2023-10-06T12:21:41.353Z,7.83
2023-10-06T12:31:51.688Z,8.87
2023-10-06T12:41:51.790Z,8.54
2023-10-06T12:51:53.932Z,8.21
2023-10-06T13:01:54.261Z,8.44
2023-10-06T13:11:54.290Z,8.53
2023-10-06T13:21:54.534Z,7.98
2023-10-06T13:31:54.634Z,9.06
2023-10-06T13:41:54.611Z,8.92
2023-10-06T13:52:05.195Z,8.66
2023-10-06T14:02:05.648Z,8.99
2023-10-06T14:12:05.400Z,9.01
2023-10-06T14:22:15.420Z,9.2
2023-10-06T14:32:15.592Z,8.45
2023-10-06T14:42:15.801Z,8.82
2023-10-06T14:52:17.323Z,8.63
2023-10-06T15:02:17.016Z,8.67
2023-10-06T15:12:32.260Z,8.52
2023-10-06T15:22:34.426Z,8.21
2023-10-06T15:32:37.489Z,8.4
2023-10-06T15:42:41.814Z,8.73
2023-10-06T15:52:44.151Z,8.72
2023-10-06T16:02:44.477Z,8.19
2023-10-06T16:12:44.449Z,8.38
2023-10-06T16:22:44.543Z,10.93
2023-10-06T16:32:46.279Z,9
2023-10-06T16:42:48.025Z,8.54
2023-10-06T16:52:48.052Z,9.08
2023-10-06T17:02:49.963Z,9.17
2023-10-06T17:12:53.641Z,9.17
2023-10-06T17:22:52.677Z,8.92
2023-10-06T17:32:53.076Z,9.25
2023-10-06T17:42:53.373Z,9.2
2023-10-06T17:52:53.595Z,9.73
2023-10-06T18:02:54.360Z,10.33
2023-10-06T18:12:59.716Z,10.74
2023-10-06T18:23:00.616Z,11.34
2023-10-06T18:33:02.110Z,10.59
2023-10-06T18:43:03.553Z,12.07
2023-10-06T18:53:06.163Z,14.19
2023-10-06T19:03:13.981Z,11.9
2023-10-06T19:13:18.817Z,12.58
2023-10-06T19:23:19.120Z,12.32
2023-10-06T19:33:27.448Z,12.45
2023-10-06T19:43:29.097Z,14.41
2023-10-06T19:53:30.127Z,15
2023-10-06T20:03:37.381Z,12.04
2023-10-06T20:13:37.578Z,12.57
2023-10-06T20:23:38.470Z,14.04
2023-10-06T20:33:42.282Z,13.72
2023-10-06T20:43:46.964Z,11.48
2023-10-06T20:53:55.125Z,12.14
2023-10-06T21:03:57.877Z,12.35
2023-10-06T21:14:04.014Z,12.81
2023-10-06T21:24:10.012Z,12.1
2023-10-06T21:34:14.301Z,12.93
2023-10-06T21:44:20.547Z,18.27
2023-10-06T21:54:27.482Z,12.35
2023-10-06T22:04:34.036Z,11.98
2023-10-06T22:14:44.342Z,12.21
2023-10-06T22:24:47.530Z,12.68
2023-10-06T22:34:47.720Z,12.29
2023-10-06T22:44:47.739Z,13.29
2023-10-06T22:54:48.047Z,13.45
2023-10-06T23:04:48.040Z,14.97
2023-10-06T23:14:47.963Z,14.74
2023-10-06T23:25:00.766Z,16.07
2023-10-06T23:35:07.192Z,16.17
2023-10-06T23:45:13.334Z,15.74
2023-10-06T23:55:20.482Z,14.99
